Lake Tapps, Washington
Current Conditions -  °F | °C
As of 3:58 PM on Monday 24 Nov 2014 (Local Time) from KTCM Reporting Station
Light Rain Light Rain  
Wind Chill: 46°   Ceiling: 6000
Heat Index: 48°   Visibility: 10mi
Dew Point: 47°   Wind: 5mph
Humidity: 99%   Direction: 210°SSW
Pressure: 30.2"   Gusts: NA
Location:  47.1874°N, 122.164°W
Report Text: KTCM 242358Z AUTO 21004KT 10SM -RA SCT049 OVC060 09/09 A3020 RMK AO2 CIG 044 RWY34 SLP233 P0002 60004 T00870086 10101 20046 57020 $
Loading
Personal Weather Stations






























Interactive Weather Map New forecast layout! Learn more

10-Day Weather Forecast

Advertisements
Track Severe Weather on mobile